首页
METAR-TAF:

METAR-TAF

机场 :

Quesnel, 不列颠哥伦比亚, 加拿大

纬度: 53-02N, 经度: 122-31W, 海拔: 545米

当前天气观测

该预报发布于36分钟前的17:00 UTC
风速3节,风向多变
温度 15°C
湿度 51%
气压 1020 hPa
能見度: 14.5公里
散云层高于4300英尺
多云层高于5000英尺
多云层高于6500英尺
多云层高于12000英尺

METAR: CYQZ 081700Z AUTO VRB03KT 9SM SCT043 BKN050 BKN065 BKN120 15/05 A3011 RMK SLP206 DENSITY ALT 1900FT

时间: 10:36 (17:36 UTC)

预报

该预报发布于5小时和58分钟前的11:38 UTC
预报有效从08日的 12点(UTC)到 08日的 24点(UTC)
风速3节,风向多变
能見度: 10公里
散云层高于6000英尺
几率 30%
从 08日的 12点(UTC)到 08日的 16点(UTC)
能見度: 3.2公里
轻雾
从 08日的 1700点(UTC)
风速7节,风向西北
能見度: 10公里
多云层高于6000英尺
短暂存在
从 08日的 17点(UTC)到 08日的 24点(UTC)
能見度: 10公里
小阵雨

TAF: CYQZ 081138Z 0812/0824 VRB03KT P6SM SCT060 PROB30 0812/0816 2SM BR FM081700 32007KT P6SM BKN060 TEMPO 0817/0824 P6SM -SHRA RMK FCST BASED ON AUTO OBS. NXT FCST BY 081900Z

超过4000个机场的气象观测和天气预报(METAR&TAF报告)。

可查询的气象台以黄色和红色小点在地图上表示。

将鼠标移到小点上方,可查看气象台名称。

然后点击查看天气观测和预报。

如需切换地图:点击带黑十字的绿色按钮放大地图;点击带横线的绿色按钮缩小地图;或者点击绿色箭头查看邻近地区的地图。


METAR-TAF: